Fort Wayne, Indiana
Current Conditions -  °F | °C
As of 4:54 AM on Thursday 18 Dec 2014 (Local Time) from KFWA Reporting Station
Overcast Overcast  
Wind Chill: -7°   Ceiling: 1900
Heat Index: -3°   Visibility: 10mi
Dew Point: -6°   Wind: 7mph
Humidity: 78%   Direction: 270°W
Pressure: 30.25"   Gusts: NA
Location:  41.08°N, 85.1°W
Report Text: KFWA 180954Z 27006KT 10SM OVC019 M03/M06 A3025 RMK AO2 SLP254 T10281061
Loading
Personal Weather Stations






























Interactive Weather Map New forecast layout! Learn more

10-Day Weather Forecast

Advertisements
Track Severe Weather on mobile